Time;durP1;ratioP1;P1;durP2;ratioP2;P2;SDS_P1;SDS_P2;PMS_P1;PMS_P2;Temp;Humidity;BMP_temperature;BMP_pressure;BME280_temperature;BME280_humidity;BME280_pressure;Samples;Min_cycle;Max_cycle;Signal;HPM_P1;HPM_P2
2021/01/18 00:01:35;;;;;;;16.50;6.70;;;;;;;-9.20;71.62;97222.66;5024946;28;20521;-73
2021/01/18 00:04:01;;;;;;;25.33;7.50;;;;;;;-10.04;72.06;97128.91;5027081;28;20566;-76
2021/01/18 00:06:27;;;;;;;28.45;8.77;;;;;;;-9.31;71.92;97210.13;5026449;28;20339;-76
2021/01/18 00:08:52;;;;;;;20.83;7.53;;;;;;;-9.12;71.93;97224.94;5026806;28;20456;-75
2021/01/18 00:11:20;;;;;;;19.02;6.43;;;;;;;-9.26;71.80;97238.88;5026666;28;20347;-76
2021/01/18 00:13:46;;;;;;;15.60;4.45;;;;;;;-10.10;71.85;97103.09;5027388;28;20064;-72
2021/01/18 00:16:15;;;;;;;16.92;6.40;;;;;;;-9.49;71.32;97207.63;5025413;28;20468;-73
2021/01/18 00:18:41;;;;;;;20.15;7.63;;;;;;;-10.08;72.02;97112.53;5009552;28;20420;-60
2021/01/18 00:21:07;;;;;;;19.65;7.53;;;;;;;-8.92;71.74;97284.31;5026588;28;20080;-61
2021/01/18 00:23:38;;;;;;;20.05;6.60;;;;;;;-9.26;71.48;97222.81;5026849;28;20068;-61
2021/01/18 00:26:05;;;;;;;22.92;8.45;;;;;;;-9.83;70.56;97136.28;5007992;28;20495;-62
2021/01/18 00:28:31;;;;;;;32.40;11.05;;;;;;;-9.38;71.62;97214.81;5027039;28;20033;-61
2021/01/18 00:30:58;;;;;;;26.25;9.25;;;;;;;-9.03;70.85;97239.56;5026156;28;20029;-62
2021/01/18 00:33:24;;;;;;;22.10;7.85;;;;;;;-9.15;71.30;97241.50;5026824;28;20383;-61
2021/01/18 00:35:49;;;;;;;20.63;7.70;;;;;;;-9.15;71.15;97233.44;5025752;28;20032;-61
2021/01/18 00:38:15;;;;;;;27.27;8.65;;;;;;;-9.25;71.26;97246.69;5026348;28;20055;-62
2021/01/18 00:40:40;;;;;;;36.60;11.10;;;;;;;-9.20;71.07;97249.47;5026208;28;20033;-60
2021/01/18 00:43:06;;;;;;;43.53;15.15;;;;;;;-9.56;70.46;97244.47;5025108;28;20148;-61
2021/01/18 00:45:31;;;;;;;27.85;9.10;;;;;;;-9.45;71.10;97257.00;5026144;28;20029;-60
2021/01/18 00:47:57;;;;;;;35.88;14.13;;;;;;;-10.63;71.22;97086.50;5025913;28;20428;-60
2021/01/18 00:50:25;;;;;;;31.58;10.93;;;;;;;-9.49;71.54;97261.25;5025855;28;20126;-62
2021/01/18 00:52:52;;;;;;;28.73;9.50;;;;;;;-9.48;71.80;97257.50;5026688;28;20069;-61
2021/01/18 00:55:19;;;;;;;31.88;10.20;;;;;;;-9.45;73.20;97354.34;5025774;28;20110;-61
2021/01/18 00:57:48;;;;;;;26.55;10.98;;;;;;;-9.84;73.56;97204.28;5026755;28;20053;-64
2021/01/18 01:00:25;;;;;;;38.97;12.00;;;;;;;-9.26;72.72;97261.13;5025430;28;20574;-61
2021/01/18 01:02:51;;;;;;;35.22;12.32;;;;;;;-10.12;72.72;97126.63;5025963;28;20041;-61
2021/01/18 01:05:26;;;;;;;43.00;14.15;;;;;;;-9.54;73.87;97197.63;5024098;28;20049;-61
2021/01/18 01:07:53;;;;;;;29.15;10.55;;;;;;;-12.97;71.65;96644.19;5025935;28;20497;-60
2021/01/18 01:10:24;;;;;;;31.17;12.25;;;;;;;-9.03;71.40;97261.03;5025591;28;20460;-60
2021/01/18 01:13:06;;;;;;;22.65;8.95;;;;;;;-11.79;71.56;96832.91;5026247;28;20412;-60
2021/01/18 01:15:32;;;;;;;21.65;8.63;;;;;;;-16.29;71.83;96357.72;5041004;28;20037;-62
2021/01/18 01:17:58;;;;;;;32.63;10.55;;;;;;;-16.91;71.49;96162.88;5025844;28;20045;-60
2021/01/18 01:20:25;;;;;;;64.72;24.83;;;;;;;-21.30;70.67;95270.84;5025124;28;20030;-61
2021/01/18 01:22:51;;;;;;;65.88;24.00;;;;;;;-15.91;70.04;96345.03;5026174;28;20508;-61
2021/01/18 01:25:19;;;;;;;52.35;17.92;;;;;;;-14.75;70.69;96320.41;5025230;28;20041;-60
2021/01/18 01:27:44;;;;;;;30.38;10.93;;;;;;;-10.78;70.84;96972.03;5025406;28;20061;-60
2021/01/18 01:30:16;;;;;;;27.27;10.98;;;;;;;-10.94;71.31;96971.94;5025468;28;20069;-60
2021/01/18 01:32:43;;;;;;;25.42;10.65;;;;;;;-21.06;70.55;95333.03;5024237;28;20033;-60
2021/01/18 01:35:10;;;;;;;23.73;9.27;;;;;;;-9.09;71.07;97352.38;5025306;28;20106;-60
2021/01/18 01:37:37;;;;;;;18.33;6.50;;;;;;;-15.94;70.18;96178.47;5025453;28;20045;-61
2021/01/18 01:40:08;;;;;;;23.33;8.80;;;;;;;-14.42;71.73;96432.28;5024808;28;20047;-61
2021/01/18 01:42:34;;;;;;;20.08;7.50;;;;;;;-9.62;71.30;97207.91;5024946;28;20030;-61
2021/01/18 01:44:59;;;;;;;20.40;8.48;;;;;;;-13.04;71.61;96681.63;5025204;28;20589;-61
2021/01/18 01:47:34;;;;;;;16.10;6.45;;;;;;;-9.60;71.17;97201.28;5025219;28;20045;-69
2021/01/18 01:50:03;;;;;;;30.85;11.75;;;;;;;-9.18;71.54;97274.16;5025544;28;20029;-70
2021/01/18 01:52:29;;;;;;;39.25;10.02;;;;;;;-9.37;72.35;97275.41;5006292;28;20037;-70
2021/01/18 01:54:59;;;;;;;31.60;9.90;;;;;;;-9.33;72.59;97276.56;5023136;28;20052;-69
2021/01/18 01:57:26;;;;;;;42.75;13.48;;;;;;;-9.27;72.66;97275.59;4987281;28;20029;-70
2021/01/18 01:59:52;;;;;;;31.17;9.90;;;;;;;-9.34;72.25;97264.19;5004491;28;20497;-71
2021/01/18 02:02:18;;;;;;;27.00;9.02;;;;;;;-11.02;72.13;97033.81;5005130;28;20120;-70
2021/01/18 02:04:47;;;;;;;23.45;8.45;;;;;;;-9.49;73.44;97271.97;5005155;28;20058;-68
2021/01/18 02:07:26;;;;;;;21.55;7.20;;;;;;;-10.17;72.98;97177.38;5004530;28;20115;-69
2021/01/18 02:09:53;;;;;;;21.10;7.18;;;;;;;-9.75;73.40;97245.69;5005465;28;20065;-70
2021/01/18 02:12:19;;;;;;;21.15;7.72;;;;;;;-9.58;74.17;97273.41;5005108;28;20034;-69
2021/01/18 02:15:02;;;;;;;20.02;7.15;;;;;;;-10.92;73.22;97039.38;5004929;28;20048;-70
2021/01/18 02:18:09;;;;;;;18.67;6.38;;;;;;;-10.06;73.40;97169.31;5005324;28;20034;-73
2021/01/18 02:20:56;;;;;;;23.00;8.60;;;;;;;-9.38;72.52;97273.78;5004936;28;20041;-73
2021/01/18 02:23:46;;;;;;;14.68;5.50;;;;;;;-9.46;73.50;97266.13;4987560;28;20167;-73
2021/01/18 02:26:37;;;;;;;26.10;7.88;;;;;;;-9.42;74.48;97267.28;4986915;28;20038;-72
2021/01/18 02:29:31;;;;;;;24.80;9.60;;;;;;;-10.71;73.05;97060.13;4991591;28;20064;-73
2021/01/18 02:32:08;;;;;;;32.20;10.20;;;;;;;-9.43;73.05;97261.09;4986813;28;20156;-71
2021/01/18 02:34:40;;;;;;;30.00;9.40;;;;;;;-9.40;72.87;97270.53;4987309;28;20050;-72
2021/01/18 02:37:30;;;;;;;31.77;10.75;;;;;;;-9.41;72.64;97268.91;5019548;28;20021;-72
2021/01/18 02:40:11;;;;;;;25.33;9.98;;;;;;;-10.06;71.96;97171.16;5022845;28;20047;-70
2021/01/18 02:42:58;;;;;;;26.50;9.45;;;;;;;-9.56;72.64;97273.97;5022847;28;20124;-71
2021/01/18 02:45:25;;;;;;;22.27;7.85;;;;;;;-10.07;72.46;97178.38;5023900;28;20044;-71
2021/01/18 02:47:50;;;;;;;22.30;8.30;;;;;;;-9.55;72.46;97272.91;5024358;28;20113;-70
2021/01/18 02:50:19;;;;;;;16.90;6.95;;;;;;;-9.65;72.22;97273.53;5038614;28;20128;-72
2021/01/18 02:52:45;;;;;;;21.58;6.93;;;;;;;-9.92;72.13;97234.94;5022895;28;20045;-69
2021/01/18 02:55:12;;;;;;;18.48;7.47;;;;;;;-9.66;72.58;97277.25;5023815;28;20531;-71
2021/01/18 02:57:43;;;;;;;30.15;10.07;;;;;;;-9.62;72.13;97273.06;5024507;28;20025;-72
2021/01/18 03:00:13;;;;;;;20.48;7.00;;;;;;;-10.59;72.07;97141.19;5023680;28;20060;-68
2021/01/18 03:03:08;;;;;;;20.92;6.80;;;;;;;-9.67;72.21;97269.44;5022792;28;20123;-69
2021/01/18 03:05:53;;;;;;;22.23;7.85;;;;;;;-9.69;72.61;97267.00;5023584;28;20377;-70
2021/01/18 03:08:33;;;;;;;18.25;6.07;;;;;;;-10.90;72.29;97093.41;5038570;28;20045;-69
2021/01/18 03:11:13;;;;;;;16.85;6.78;;;;;;;-10.31;72.19;97176.03;5022301;28;20025;-70
2021/01/18 03:13:46;;;;;;;23.80;7.70;;;;;;;-9.71;71.77;97285.22;5028331;28;20500;-70
2021/01/18 03:16:38;;;;;;;23.42;8.25;;;;;;;-9.96;71.71;97241.00;5027810;28;20040;-71
2021/01/18 03:19:05;;;;;;;26.48;9.35;;;;;;;-10.22;71.40;97217.44;5027961;28;20504;-68
2021/01/18 03:21:31;;;;;;;27.30;8.27;;;;;;;-9.94;72.01;97255.78;5026231;28;20737;-69
2021/01/18 03:23:57;;;;;;;29.10;9.07;;;;;;;-9.70;71.93;97291.34;5028453;28;20203;-69
2021/01/18 03:26:25;;;;;;;19.35;7.03;;;;;;;-9.74;71.82;97292.91;5026103;28;20492;-68
2021/01/18 03:28:50;;;;;;;24.98;8.18;;;;;;;-10.15;72.07;97218.97;5026148;28;20049;-67
2021/01/18 03:31:16;;;;;;;17.70;7.45;;;;;;;-10.01;72.13;97254.28;5027302;28;20040;-69
2021/01/18 03:33:41;;;;;;;17.77;7.30;;;;;;;-9.90;72.57;97280.22;5042903;28;20049;-67
2021/01/18 03:36:07;;;;;;;15.68;5.43;;;;;;;-10.01;72.15;97251.59;5027558;28;20037;-69
2021/01/18 03:38:32;;;;;;;15.90;5.18;;;;;;;-9.96;72.33;97270.47;5026085;28;20033;-70
2021/01/18 03:40:58;;;;;;;17.17;6.10;;;;;;;-9.83;72.37;97299.69;5027064;28;20033;-71
2021/01/18 03:43:23;;;;;;;18.70;6.72;;;;;;;-10.47;71.47;97182.09;5027634;28;20500;-70
2021/01/18 03:45:49;;;;;;;15.95;5.05;;;;;;;-9.80;71.49;97297.31;5025426;28;20029;-70
2021/01/18 03:48:15;;;;;;;17.73;4.68;;;;;;;-9.90;71.07;97296.31;5027181;28;20415;-68
2021/01/18 03:50:41;;;;;;;13.98;5.10;;;;;;;-10.29;71.33;97265.75;5008755;28;20519;-69
2021/01/18 03:53:10;;;;;;;18.33;6.07;;;;;;;-10.24;71.79;97268.53;5009417;28;20033;-68
2021/01/18 03:55:37;;;;;;;16.17;4.85;;;;;;;-10.60;71.34;97225.97;5008733;28;20029;-71
2021/01/18 03:58:03;;;;;;;15.57;5.45;;;;;;;-10.23;71.77;97301.50;5027710;28;20041;-69
2021/01/18 04:00:31;;;;;;;16.10;5.90;;;;;;;-10.15;71.69;97320.72;5026682;28;20058;-70
2021/01/18 04:02:57;;;;;;;17.88;6.15;;;;;;;-11.23;71.76;97201.75;5014691;28;20038;-70
2021/01/18 04:05:23;;;;;;;19.33;6.45;;;;;;;-10.38;71.96;97252.94;5006937;28;20092;-70
2021/01/18 04:07:50;;;;;;;37.38;9.85;;;;;;;-11.89;72.43;97085.50;4989363;28;20042;-70
2021/01/18 04:10:27;;;;;;;27.20;8.27;;;;;;;-10.29;72.64;97291.72;4988800;28;20388;-69
2021/01/18 04:12:53;;;;;;;25.38;8.10;;;;;;;-10.47;72.54;97292.66;5007718;28;20069;-67
2021/01/18 04:15:21;;;;;;;23.70;7.35;;;;;;;-10.33;72.10;97306.59;5006443;28;20037;-69
2021/01/18 04:17:51;;;;;;;23.92;7.57;;;;;;;-10.55;71.77;97246.69;4988927;28;20112;-71
2021/01/18 04:20:18;;;;;;;30.73;7.72;;;;;;;-10.73;71.93;97236.09;5006668;28;20038;-68
2021/01/18 04:23:04;;;;;;;31.58;11.27;;;;;;;-10.20;71.91;97311.72;5006576;28;20041;-71
2021/01/18 04:25:30;;;;;;;32.83;10.75;;;;;;;-10.17;71.37;97295.19;5006515;28;20061;-70
2021/01/18 04:27:58;;;;;;;20.55;6.57;;;;;;;-10.24;71.78;97311.38;5007399;28;20378;-71
2021/01/18 04:30:25;;;;;;;21.52;6.13;;;;;;;-10.29;71.55;97323.84;5006704;28;20037;-68
2021/01/18 04:33:03;;;;;;;21.13;6.20;;;;;;;-11.23;72.01;97192.91;5007380;28;20495;-71
2021/01/18 04:35:32;;;;;;;23.95;6.70;;;;;;;-10.13;71.92;97315.13;5006908;28;20515;-69
2021/01/18 04:37:59;;;;;;;18.75;7.78;;;;;;;-10.03;72.06;97323.31;5026748;28;20033;-70
2021/01/18 04:40:28;;;;;;;21.30;7.28;;;;;;;-10.00;71.71;97317.50;5026246;28;20132;-71
2021/01/18 04:42:54;;;;;;;20.70;6.78;;;;;;;-10.44;71.42;97272.63;5025056;28;20589;-71
2021/01/18 04:45:21;;;;;;;21.65;6.57;;;;;;;-10.65;70.63;97227.72;5026172;28;20083;-70
2021/01/18 04:47:48;;;;;;;18.20;6.93;;;;;;;-10.65;70.78;97249.13;5026644;28;20033;-69
2021/01/18 04:50:15;;;;;;;28.42;9.00;;;;;;;-9.89;71.32;97340.78;5025704;28;20044;-68
2021/01/18 04:52:44;;;;;;;37.78;12.70;;;;;;;-9.86;70.98;97340.31;5024786;28;20041;-68
2021/01/18 04:55:22;;;;;;;37.95;11.38;;;;;;;-10.17;70.82;97303.22;5025752;28;20038;-69
2021/01/18 04:58:02;;;;;;;31.88;12.10;;;;;;;-10.82;71.22;97210.72;5026176;28;20295;-69
2021/01/18 05:00:34;;;;;;;51.05;18.05;;;;;;;-10.36;71.61;97269.59;5021584;28;20068;-70
2021/01/18 05:03:06;;;;;;;63.40;23.13;;;;;;;-9.77;71.07;97355.00;5006538;28;20046;-70
2021/01/18 05:05:57;;;;;;;49.78;19.80;;;;;;;-9.74;70.97;97365.25;4987874;28;20042;-66
2021/01/18 05:08:40;;;;;;;43.63;16.15;;;;;;;-9.73;70.74;97351.59;5005549;28;20061;-70
2021/01/18 05:11:08;;;;;;;34.08;14.98;;;;;;;-10.62;70.26;97211.22;4987765;28;20457;-70
2021/01/18 05:13:34;;;;;;;30.55;12.93;;;;;;;-9.92;69.84;97346.59;4988326;28;20041;-69
2021/01/18 05:15:59;;;;;;;40.00;15.55;;;;;;;-10.03;70.07;97336.72;5005632;28;20034;-68
2021/01/18 05:18:32;;;;;;;40.90;15.30;;;;;;;-10.22;70.06;97329.88;5006207;28;20063;-68
2021/01/18 05:21:02;;;;;;;48.67;18.00;;;;;;;-9.96;70.49;97382.97;4987878;28;20049;-67
2021/01/18 05:23:28;;;;;;;61.47;18.92;;;;;;;-11.70;69.83;97098.56;5005894;28;20505;-67
2021/01/18 05:26:15;;;;;;;50.80;15.77;;;;;;;-9.99;70.31;97364.69;5005332;28;20030;-68
2021/01/18 05:28:50;;;;;;;26.58;9.57;;;;;;;-10.11;70.69;97371.91;4988037;28;20045;-65
2021/01/18 05:31:32;;;;;;;36.78;12.75;;;;;;;-11.00;70.59;97264.31;5005604;28;20052;-65
2021/01/18 05:34:02;;;;;;;32.53;11.98;;;;;;;-10.14;71.29;97375.06;5006016;28;20529;-67
2021/01/18 05:37:06;;;;;;;35.03;11.18;;;;;;;-10.10;70.94;97376.22;4991423;28;20038;-66
2021/01/18 05:39:33;;;;;;;35.80;14.65;;;;;;;-11.12;70.52;97261.59;4964386;28;20078;-67
2021/01/18 05:41:59;;;;;;;40.00;13.90;;;;;;;-10.20;70.97;97375.97;4997514;28;20476;-66
2021/01/18 05:44:37;;;;;;;72.88;24.23;;;;;;;-11.24;70.90;97186.75;5005603;28;20049;-65
2021/01/18 05:47:08;;;;;;;52.75;19.25;;;;;;;-10.11;70.28;97369.22;4987080;28;20125;-66
2021/01/18 05:49:49;;;;;;;51.38;18.13;;;;;;;-10.65;70.54;97275.88;5005651;28;20103;-66
2021/01/18 05:52:29;;;;;;;45.15;22.67;;;;;;;-10.02;70.23;97368.63;4987069;28;20064;-65
2021/01/18 05:55:13;;;;;;;42.33;16.38;;;;;;;-10.09;70.80;97361.78;5005013;28;20044;-68
2021/01/18 05:57:43;;;;;;;31.38;12.85;;;;;;;-10.00;70.84;97366.53;5005604;28;20515;-66
2021/01/18 06:00:10;;;;;;;43.33;15.02;;;;;;;-10.43;70.08;97311.72;5004775;28;20524;-66
2021/01/18 06:02:38;;;;;;;51.22;18.25;;;;;;;-9.94;69.67;97429.09;4996571;28;20025;-65
2021/01/18 06:05:08;;;;;;;44.40;20.38;;;;;;;-10.77;70.87;97218.88;5001986;28;20044;-65
2021/01/18 06:07:34;;;;;;;28.73;13.77;;;;;;;-10.26;69.06;97307.31;5022760;28;20547;-74
2021/01/18 06:09:59;;;;;;;39.30;15.68;;;;;;;-9.76;69.66;97378.03;5022503;28;20511;-65
2021/01/18 06:12:28;;;;;;;41.40;16.23;;;;;;;-9.66;69.42;97383.63;5024642;28;20038;-71
2021/01/18 06:15:14;;;;;;;32.78;14.60;;;;;;;-10.14;69.50;97321.50;5005879;28;20124;-68
2021/01/18 06:17:43;;;;;;;56.35;19.45;;;;;;;-9.62;69.13;97384.78;5024596;28;20033;-69
2021/01/18 06:20:16;;;;;;;30.10;13.52;;;;;;;-10.32;69.50;97260.06;5022411;28;20052;-67
2021/01/18 06:22:42;;;;;;;54.97;18.30;;;;;;;-10.21;69.04;97240.50;5024238;28;20041;-68
2021/01/18 06:25:12;;;;;;;50.45;20.70;;;;;;;-9.18;68.39;97383.31;5024165;28;20087;-67
2021/01/18 06:27:38;;;;;;;51.17;21.20;;;;;;;-9.06;67.39;97387.59;5006444;28;20068;-73
2021/01/18 06:30:18;;;;;;;40.00;17.40;;;;;;;-12.22;66.60;96851.19;5006037;28;20500;-65
2021/01/18 06:32:44;;;;;;;55.30;19.90;;;;;;;-9.08;66.69;97389.69;5024960;28;20030;-66
2021/01/18 06:35:10;;;;;;;56.75;21.25;;;;;;;-9.02;66.95;97364.59;5023871;28;20040;-66
2021/01/18 06:37:38;;;;;;;34.13;12.63;;;;;;;-10.47;66.23;97105.31;5024209;28;20045;-66
2021/01/18 06:40:06;;;;;;;36.35;14.90;;;;;;;-8.71;65.91;97387.44;5024079;28;20033;-66
2021/01/18 06:42:31;;;;;;;34.05;13.32;;;;;;;-8.63;65.27;97379.81;5023966;28;20035;-66
2021/01/18 06:44:57;;;;;;;41.65;16.27;;;;;;;-9.45;65.34;97278.47;5024185;28;20112;-69
2021/01/18 06:47:28;;;;;;;33.42;15.18;;;;;;;-8.49;64.96;97346.25;5005275;28;20041;-66
2021/01/18 06:49:57;;;;;;;37.05;12.68;;;;;;;-8.12;64.47;97376.91;5024223;28;20040;-65
2021/01/18 06:52:25;;;;;;;31.30;12.48;;;;;;;-8.05;64.64;97377.56;5024288;28;20041;-63
2021/01/18 06:55:12;;;;;;;31.13;11.95;;;;;;;-8.01;63.33;97357.19;5024303;28;20044;-67
2021/01/18 06:57:46;;;;;;;45.53;19.45;;;;;;;-7.64;63.25;97383.53;5024624;28;20060;-65
2021/01/18 07:00:14;;;;;;;51.80;18.73;;;;;;;-7.89;62.23;97341.78;5023577;28;20045;-64
2021/01/18 07:03:04;;;;;;;63.28;20.67;;;;;;;-7.38;63.18;97393.59;5023723;28;20040;-64
2021/01/18 07:05:44;;;;;;;51.78;20.42;;;;;;;-8.81;62.43;97154.63;5014950;28;20041;-61
2021/01/18 07:08:13;;;;;;;36.08;16.05;;;;;;;-7.14;62.16;97394.97;5023341;28;20049;-65
2021/01/18 07:10:45;;;;;;;48.38;18.77;;;;;;;-6.97;62.34;97401.13;5022903;28;20147;-61
2021/01/18 07:13:11;;;;;;;;;;;;;;;-6.66;61.74;97403.09;5025219;28;20087;-62
2021/01/18 07:15:39;;;;;;;71.32;24.92;;;;;;;-6.54;60.83;97401.06;5023137;28;19925;-67
2021/01/18 07:18:08;;;;;;;69.70;24.45;;;;;;;-6.56;59.79;97374.38;5024138;28;20515;-63
2021/01/18 07:20:41;;;;;;;49.33;16.58;;;;;;;-6.12;58.95;97410.13;5001928;28;20042;-65
2021/01/18 07:23:06;;;;;;;45.35;13.25;;;;;;;-5.90;58.00;97408.16;5022514;28;20540;-68
2021/01/18 07:25:36;;;;;;;30.45;12.13;;;;;;;-5.69;57.31;97506.22;5003902;28;20038;-61
2021/01/18 07:28:03;;;;;;;37.75;12.20;;;;;;;-5.49;56.33;97414.63;5024345;28;20048;-65
2021/01/18 07:30:33;;;;;;;26.52;10.55;;;;;;;-5.35;56.57;97416.63;5004836;28;20406;-67
2021/01/18 07:33:07;;;;;;;42.70;15.43;;;;;;;-5.08;56.30;97417.34;5005869;28;20403;-70
2021/01/18 07:35:34;;;;;;;69.88;28.15;;;;;;;-5.08;56.83;97374.13;5023661;28;20109;-70
2021/01/18 07:38:15;;;;;;;74.03;30.05;;;;;;;-5.29;56.03;97361.59;5005736;28;20040;-67
2021/01/18 07:40:41;;;;;;;64.32;28.08;;;;;;;-4.32;55.42;97417.63;5023545;28;20487;-66
2021/01/18 07:43:09;;;;;;;68.40;29.65;;;;;;;-4.13;55.60;97416.88;5024097;28;20041;-66
2021/01/18 07:45:34;;;;;;;88.10;33.88;;;;;;;-4.11;54.49;97419.28;5004867;28;20048;-67
2021/01/18 07:48:04;;;;;;;89.03;34.05;;;;;;;-3.95;53.97;97418.25;5023978;28;20037;-73
2021/01/18 07:50:40;;;;;;;87.85;35.92;;;;;;;-3.81;53.08;97422.81;5005348;28;20034;-65
2021/01/18 07:53:09;;;;;;;77.55;32.70;;;;;;;-3.71;52.87;97412.03;5023852;28;20029;-65
2021/01/18 07:55:37;;;;;;;75.75;34.63;;;;;;;-3.73;52.97;97416.88;5003493;28;20036;-67
2021/01/18 07:58:13;;;;;;;75.07;31.55;;;;;;;-3.58;52.23;97421.50;5008794;28;20068;-64
2021/01/18 08:00:39;;;;;;;75.88;32.03;;;;;;;-3.48;52.32;97411.47;5025882;28;20502;-65
2021/01/18 08:03:07;;;;;;;61.08;26.67;;;;;;;-3.34;52.90;97417.16;5008439;28;20044;-69
2021/01/18 08:05:35;;;;;;;52.70;24.55;;;;;;;-3.90;52.03;97310.84;5025134;28;20029;-67
2021/01/18 08:08:04;;;;;;;82.07;41.33;;;;;;;-3.59;53.04;97341.38;5026461;28;20531;-71
2021/01/18 08:10:54;;;;;;;62.67;30.35;;;;;;;-3.02;51.61;97404.09;5026558;28;20061;-70
2021/01/18 08:13:56;;;;;;;109.35;42.63;;;;;;;-2.82;52.07;97403.19;5026505;28;20607;-63
2021/01/18 08:16:26;;;;;;;106.82;45.28;;;;;;;-2.66;51.90;97397.47;4948084;28;20066;-66
2021/01/18 08:18:53;;;;;;;86.00;36.10;;;;;;;-2.60;51.07;97396.34;4996868;28;20496;-65
2021/01/18 08:21:34;;;;;;;72.57;29.42;;;;;;;-2.47;50.71;97395.75;5013978;28;20034;-64
2021/01/18 08:24:03;;;;;;;79.15;34.10;;;;;;;-3.13;49.89;97300.34;5003000;28;20047;-64
2021/01/18 08:26:49;;;;;;;82.47;37.45;;;;;;;-2.30;50.06;97390.75;5025667;28;20048;-62
2021/01/18 08:29:36;;;;;;;35.17;15.65;;;;;;;-2.69;49.61;97398.00;5026655;28;20049;-63
2021/01/18 08:32:20;;;;;;;49.63;22.55;;;;;;;-2.59;50.52;97397.94;5025701;28;20056;-65
2021/01/18 08:34:49;;;;;;;55.42;23.23;;;;;;;-2.08;50.00;97399.31;5026620;28;20087;-64
2021/01/18 08:37:15;;;;;;;42.05;19.42;;;;;;;-1.92;49.77;97402.72;5008374;28;20030;-63
2021/01/18 08:39:51;;;;;;;41.83;19.92;;;;;;;-1.65;49.28;97393.03;5026625;28;20025;-64
2021/01/18 08:42:52;;;;;;;40.25;18.90;;;;;;;-1.30;47.62;97385.66;5025949;28;20091;-64
2021/01/18 08:45:28;;;;;;;52.25;22.95;;;;;;;-1.26;47.14;97389.41;5017997;28;20049;-70
2021/01/18 08:47:55;;;;;;;36.35;13.90;;;;;;;-1.22;45.75;97357.88;5026355;28;20100;-66
2021/01/18 08:50:21;;;;;;;39.42;17.77;;;;;;;-0.92;45.47;97379.28;5024477;28;20069;-71
2021/01/18 08:52:55;;;;;;;42.00;16.75;;;;;;;-0.81;45.09;97375.34;5026575;28;20033;-71
2021/01/18 08:55:30;;;;;;;55.80;25.90;;;;;;;-0.71;45.30;97375.25;5025666;28;20456;-66
2021/01/18 08:57:59;;;;;;;64.68;27.50;;;;;;;-0.53;46.81;97366.28;5025816;28;20080;-67
2021/01/18 09:00:36;;;;;;;78.85;28.73;;;;;;;-0.33;45.07;97366.00;5025509;28;20054;-72
2021/01/18 09:03:01;;;;;;;65.75;26.70;;;;;;;-0.51;43.97;97347.78;5026645;28;20488;-69
2021/01/18 09:05:27;;;;;;;57.15;23.13;;;;;;;-0.45;43.23;97360.22;5014270;28;20313;-66
2021/01/18 09:07:53;;;;;;;56.28;22.10;;;;;;;-0.36;44.30;97355.72;5025222;28;20033;-71
2021/01/18 09:10:21;;;;;;;54.03;20.17;;;;;;;-0.27;45.26;97364.88;5024050;28;20033;-65
2021/01/18 09:12:47;;;;;;;40.85;15.85;;;;;;;-0.34;43.10;97364.41;5025303;28;20477;-72
2021/01/18 09:15:15;;;;;;;29.23;14.48;;;;;;;-0.97;43.62;97224.38;5007212;28;20033;-70
2021/01/18 09:17:41;;;;;;;34.25;13.50;;;;;;;-0.04;44.63;97353.09;5026145;28;20037;-68
2021/01/18 09:20:11;;;;;;;34.63;14.90;;;;;;;0.08;44.18;97328.94;5025705;28;20036;-69
2021/01/18 09:22:38;;;;;;;39.25;16.58;;;;;;;0.07;42.42;97294.66;5009518;28;20060;-69
2021/01/18 09:25:05;;;;;;;56.95;21.75;;;;;;;0.50;41.95;97345.13;5025027;28;20432;-67
2021/01/18 09:27:32;;;;;;;42.88;18.25;;;;;;;0.74;41.97;97337.63;5025321;28;20069;-65
2021/01/18 09:30:17;;;;;;;12.70;4.97;;;;;;;0.14;38.15;97262.41;5025588;28;20030;-65
2021/01/18 09:32:54;;;;;;;12.70;7.35;;;;;;;0.41;38.92;97306.03;5007601;28;20041;-68
2021/01/18 09:35:20;;;;;;;16.45;6.95;;;;;;;0.44;40.22;97312.81;5007419;28;20030;-69
2021/01/18 09:37:48;;;;;;;36.78;14.63;;;;;;;-0.04;39.80;97246.91;5024697;28;20033;-70
2021/01/18 09:40:14;;;;;;;14.30;5.95;;;;;;;0.08;39.19;97241.00;5020004;28;20033;-68
2021/01/18 09:42:40;;;;;;;8.85;3.85;;;;;;;0.60;36.99;97320.41;4996525;28;20039;-69
2021/01/18 09:45:08;;;;;;;14.48;6.07;;;;;;;0.85;37.41;97328.16;5025221;28;20037;-70
2021/01/18 09:47:35;;;;;;;13.63;4.93;;;;;;;0.68;36.19;97269.88;5025058;28;20021;-69
2021/01/18 09:50:04;;;;;;;10.13;3.88;;;;;;;0.55;36.70;97301.47;5025433;28;20046;-64
2021/01/18 09:52:30;;;;;;;37.08;13.23;;;;;;;0.44;36.71;97245.53;5024388;28;20060;-65
2021/01/18 09:54:58;;;;;;;10.50;4.70;;;;;;;0.90;38.56;97275.44;5025198;28;20065;-68
2021/01/18 09:57:26;;;;;;;15.98;7.43;;;;;;;1.22;39.18;97299.88;5006770;28;20037;-68
2021/01/18 09:59:52;;;;;;;36.22;17.20;;;;;;;0.84;39.43;97222.91;5024041;28;20048;-65
2021/01/18 10:02:21;;;;;;;14.65;6.95;;;;;;;0.98;38.81;97297.34;5002818;28;20054;-67
2021/01/18 10:04:49;;;;;;;12.18;7.60;;;;;;;0.60;40.21;97222.31;5005395;28;20127;-68
2021/01/18 10:07:15;;;;;;;8.90;4.03;;;;;;;1.00;38.49;97231.59;5004845;28;20029;-69
2021/01/18 10:09:42;;;;;;;12.40;5.93;;;;;;;1.22;38.25;97262.47;4986774;28;20049;-69
2021/01/18 10:12:13;;;;;;;12.48;6.57;;;;;;;1.58;38.64;97269.91;5005050;28;20038;-68
2021/01/18 10:14:49;;;;;;;20.55;9.07;;;;;;;1.85;38.70;97265.16;5005538;28;20527;-69
2021/01/18 10:17:15;;;;;;;56.20;21.15;;;;;;;2.09;37.14;97267.59;5005096;28;20171;-70
2021/01/18 10:19:42;;;;;;;20.25;7.75;;;;;;;1.90;35.84;97250.59;5005016;28;20030;-68
2021/01/18 10:22:18;;;;;;;13.50;6.03;;;;;;;1.76;35.70;97184.28;4986232;28;20049;-69
2021/01/18 10:24:55;;;;;;;9.40;4.45;;;;;;;0.40;35.05;97081.03;5004879;28;20424;-69
2021/01/18 10:27:26;;;;;;;18.90;6.15;;;;;;;1.08;35.99;97234.41;5004807;28;20034;-69
2021/01/18 10:30:11;;;;;;;8.00;4.15;;;;;;;-0.29;36.66;97124.88;5014052;28;20042;-68
2021/01/18 10:32:44;;;;;;;6.72;3.22;;;;;;;0.41;33.61;97134.41;5023578;28;20033;-67
2021/01/18 10:35:19;;;;;;;;;;;;;;;1.37;33.78;97248.53;5005909;28;20048;-68
2021/01/18 10:37:45;;;;;;;9.02;3.55;;;;;;;1.04;34.95;97243.53;5019033;28;19917;-66
2021/01/18 10:40:12;;;;;;;7.03;2.95;;;;;;;0.98;33.64;97218.25;5010827;28;20513;-66
2021/01/18 10:42:53;;;;;;;10.07;3.50;;;;;;;0.03;34.14;97121.28;5010990;28;20049;-68
2021/01/18 10:45:20;;;;;;;9.30;3.42;;;;;;;1.05;35.25;97213.22;5023493;28;20064;-66
2021/01/18 10:47:53;;;;;;;9.48;3.50;;;;;;;1.16;34.98;97230.97;5022331;28;20102;-67
2021/01/18 10:50:23;;;;;;;;;;;;;;;1.08;35.31;97223.50;5025955;28;20037;-66
2021/01/18 10:52:48;;;;;;;10.98;4.65;;;;;;;0.31;35.43;97104.66;5039861;28;19921;-64
2021/01/18 10:55:14;;;;;;;10.73;4.30;;;;;;;-1.62;36.02;96767.97;5021918;28;20096;-69
2021/01/18 10:57:41;;;;;;;8.25;3.75;;;;;;;1.31;35.43;97221.66;5024600;28;20045;-65
2021/01/18 11:00:11;;;;;;;6.07;2.80;;;;;;;1.36;34.63;97214.16;5023510;28;20041;-69
2021/01/18 11:02:41;;;;;;;14.85;6.20;;;;;;;1.23;35.77;97214.97;5024706;28;20095;-73
2021/01/18 11:05:08;;;;;;;18.17;7.00;;;;;;;1.42;35.64;97218.38;5023014;28;20405;-66
2021/01/18 11:07:34;;;;;;;10.13;4.45;;;;;;;0.99;35.90;97170.00;5024103;28;20030;-65
2021/01/18 11:10:00;;;;;;;11.32;4.47;;;;;;;1.32;35.60;97212.34;5024131;28;20033;-65
2021/01/18 11:12:33;;;;;;;9.95;4.13;;;;;;;0.58;35.79;97126.44;5023533;28;20041;-65
2021/01/18 11:14:59;;;;;;;;;;;;;;;1.31;35.33;97211.53;5024358;28;20112;-64
2021/01/18 11:17:29;;;;;;;9.68;3.30;;;;;;;0.78;35.96;97153.25;5023086;28;20059;-68
2021/01/18 11:19:54;;;;;;;10.02;3.72;;;;;;;0.89;35.57;97160.13;5023784;28;20034;-66
2021/01/18 11:22:20;;;;;;;14.30;5.85;;;;;;;-0.06;35.02;96990.50;5001205;28;20088;-66
2021/01/18 11:24:46;;;;;;;9.38;4.28;;;;;;;1.32;35.13;97207.72;5019719;28;20032;-66
2021/01/18 11:27:12;;;;;;;8.95;4.22;;;;;;;1.39;34.22;97191.72;5023321;28;20038;-67
2021/01/18 11:29:37;;;;;;;10.43;4.93;;;;;;;1.52;34.70;97196.31;5023542;28;20044;-67
2021/01/18 11:32:03;;;;;;;5.22;3.22;;;;;;;1.28;32.13;97141.22;5032326;28;20477;-64
2021/01/18 11:34:29;;;;;;;9.45;3.60;;;;;;;1.29;32.74;97147.50;5036484;28;20037;-68
2021/01/18 11:36:54;;;;;;;7.25;3.50;;;;;;;1.56;31.94;97191.84;5026575;28;20037;-68
2021/01/18 11:39:20;;;;;;;7.75;3.53;;;;;;;1.64;33.38;97189.50;5009307;28;20057;-70